createdAt,value
2023-01-13T00:01:08.864Z,10.98
2023-01-13T00:03:35.806Z,11.09
2023-01-13T00:06:02.505Z,11.14
2023-01-13T00:08:29.139Z,11.18
2023-01-13T00:10:56.925Z,11.04
2023-01-13T00:13:23.582Z,11.09
2023-01-13T00:16:00.015Z,11.06
2023-01-13T00:18:26.895Z,11.07
2023-01-13T00:21:03.105Z,11.01
2023-01-13T00:23:30.508Z,10.98
2023-01-13T00:26:01.454Z,10.86
2023-01-13T00:28:28.249Z,10.95
2023-01-13T00:30:55.042Z,10.97
2023-01-13T00:33:21.679Z,11.05
2023-01-13T00:35:58.172Z,11.09
2023-01-13T00:38:24.813Z,11.05
2023-01-13T00:41:09.037Z,10.97
2023-01-13T00:43:36.247Z,10.89
2023-01-13T00:46:03.968Z,10.89
2023-01-13T00:48:30.826Z,10.97
2023-01-13T00:51:04.781Z,10.74
2023-01-13T00:53:36.599Z,10.79
2023-01-13T00:56:03.942Z,10.85
2023-01-13T00:58:34.187Z,10.80
2023-01-13T01:01:01.968Z,10.82
2023-01-13T01:03:28.764Z,10.84
2023-01-13T01:05:56.083Z,10.90
2023-01-13T01:08:22.718Z,10.92
2023-01-13T01:10:49.394Z,10.91
2023-01-13T01:13:16.038Z,10.87
2023-01-13T01:15:43.560Z,10.98
2023-01-13T01:18:10.216Z,11.00
2023-01-13T01:20:37.455Z,11.03
2023-01-13T01:23:04.365Z,11.08
2023-01-13T01:25:32.673Z,11.11
2023-01-13T01:27:59.845Z,11.07
2023-01-13T01:30:26.513Z,11.27
2023-01-13T01:32:53.160Z,11.31
2023-01-13T01:35:19.813Z,11.22
2023-01-13T01:37:46.466Z,11.19
2023-01-13T01:40:13.263Z,11.32
2023-01-13T01:42:40.222Z,11.46
2023-01-13T01:45:20.807Z,11.57
2023-01-13T01:47:48.547Z,11.51
2023-01-13T01:50:15.423Z,11.58
2023-01-13T01:52:43.240Z,11.53
2023-01-13T01:55:18.220Z,11.63
2023-01-13T01:58:08.851Z,11.63
2023-01-13T02:00:35.506Z,11.60
2023-01-13T02:03:02.162Z,11.53
2023-01-13T02:05:28.808Z,11.63
2023-01-13T02:07:56.947Z,11.44
2023-01-13T02:10:25.142Z,11.48
2023-01-13T02:12:51.783Z,11.48
2023-01-13T02:15:25.080Z,11.45
2023-01-13T02:18:13.536Z,11.29
2023-01-13T02:20:59.702Z,11.20
2023-01-13T02:23:44.457Z,11.22
2023-01-13T02:26:50.698Z,11.12
2023-01-13T02:29:32.786Z,11.10
2023-01-13T02:32:04.088Z,10.93
2023-01-13T02:34:39.141Z,11.02
2023-01-13T02:37:27.478Z,10.97
2023-01-13T02:40:02.612Z,10.94
2023-01-13T02:42:34.536Z,10.89
2023-01-13T02:45:11.726Z,10.79
2023-01-13T02:47:38.761Z,10.80
2023-01-13T02:50:10.531Z,10.91
2023-01-13T02:52:44.693Z,10.95
2023-01-13T02:55:20.026Z,11.00
2023-01-13T02:57:46.673Z,11.06
2023-01-13T03:00:13.627Z,11.16
2023-01-13T03:02:40.297Z,11.21
2023-01-13T03:05:07.226Z,11.25
2023-01-13T03:07:59.098Z,11.14
2023-01-13T03:10:31.843Z,11.31
2023-01-13T03:13:19.970Z,11.11
2023-01-13T03:16:05.394Z,11.10
2023-01-13T03:18:53.240Z,11.22
2023-01-13T03:21:20.989Z,11.38
2023-01-13T03:23:55.648Z,11.37
2023-01-13T03:26:28.331Z,11.38
2023-01-13T03:29:19.806Z,11.31
2023-01-13T03:32:11.875Z,11.33
2023-01-13T03:34:48.437Z,11.28
2023-01-13T03:37:15.094Z,11.17
2023-01-13T03:39:44.033Z,11.20
2023-01-13T03:42:13.294Z,11.11
2023-01-13T03:44:53.872Z,11.34
2023-01-13T03:47:58.893Z,11.39
2023-01-13T03:50:49.592Z,11.57
2023-01-13T03:53:23.620Z,11.59
2023-01-13T03:55:59.723Z,11.48
2023-01-13T03:58:29.204Z,11.65
2023-01-13T04:01:01.722Z,11.58
2023-01-13T04:03:46.723Z,11.47
2023-01-13T04:06:19.734Z,11.60
2023-01-13T04:08:52.557Z,11.51
2023-01-13T04:11:23.497Z,11.45
2023-01-13T04:13:50.155Z,11.18
2023-01-13T04:16:16.744Z,11.10
2023-01-13T04:18:43.377Z,11.15
2023-01-13T04:21:10.021Z,11.19
2023-01-13T04:23:36.700Z,11.22
2023-01-13T04:26:03.381Z,11.08
2023-01-13T04:28:30.030Z,11.31
2023-01-13T04:30:56.742Z,11.26
2023-01-13T04:33:23.412Z,11.32
2023-01-13T04:35:50.046Z,11.10
2023-01-13T04:38:17.902Z,11.21
2023-01-13T04:40:44.686Z,10.73
2023-01-13T04:43:11.494Z,10.42
2023-01-13T04:45:38.163Z,10.44
2023-01-13T04:48:04.978Z,10.42
2023-01-13T04:50:31.653Z,10.34
2023-01-13T04:52:58.278Z,10.28
2023-01-13T04:55:25.021Z,10.26
2023-01-13T04:57:51.773Z,10.34
2023-01-13T05:00:20.021Z,10.35
2023-01-13T05:02:46.640Z,10.45
2023-01-13T05:05:13.482Z,10.44
2023-01-13T05:07:40.087Z,10.32
2023-01-13T05:10:06.897Z,10.41
2023-01-13T05:12:33.560Z,10.46
2023-01-13T05:15:00.219Z,10.49
2023-01-13T05:17:27.028Z,10.57
2023-01-13T05:19:53.724Z,10.57
2023-01-13T05:22:20.390Z,10.51
2023-01-13T05:24:46.985Z,10.53
2023-01-13T05:27:13.647Z,10.45
2023-01-13T05:29:40.290Z,10.43
2023-01-13T05:32:06.923Z,10.40
2023-01-13T05:34:33.562Z,10.28
2023-01-13T05:37:00.242Z,10.37
2023-01-13T05:39:29.895Z,10.29
2023-01-13T05:41:56.556Z,10.22
2023-01-13T05:44:23.214Z,10.41
2023-01-13T05:46:49.897Z,10.30
2023-01-13T05:49:16.634Z,10.22
2023-01-13T05:51:43.313Z,10.14
2023-01-13T05:54:09.959Z,9.99
2023-01-13T05:56:36.585Z,9.90
2023-01-13T05:59:03.244Z,9.84
2023-01-13T06:01:29.907Z,10.02
2023-01-13T06:03:56.593Z,10.16
2023-01-13T06:06:23.280Z,10.13
2023-01-13T06:08:49.882Z,9.81
2023-01-13T06:11:16.534Z,10.11
2023-01-13T06:13:43.187Z,10.02
2023-01-13T06:16:09.945Z,10.09
2023-01-13T06:18:36.577Z,9.95
2023-01-13T06:21:03.387Z,10.14
2023-01-13T06:23:30.048Z,10.22
2023-01-13T06:26:18.910Z,10.00
2023-01-13T06:28:45.608Z,9.99
2023-01-13T06:31:12.341Z,10.08
2023-01-13T06:33:50.353Z,9.91
2023-01-13T06:36:19.511Z,9.89
2023-01-13T06:38:47.280Z,9.82
2023-01-13T06:41:13.958Z,9.76
2023-01-13T06:43:40.642Z,9.85
2023-01-13T06:46:07.249Z,10.07
2023-01-13T06:48:34.166Z,10.15
2023-01-13T06:51:04.302Z,10.00
2023-01-13T06:53:31.181Z,9.96
2023-01-13T06:55:57.839Z,10.00
2023-01-13T06:58:24.436Z,9.75
2023-01-13T07:00:51.106Z,9.67
2023-01-13T07:03:17.861Z,9.69
2023-01-13T07:05:52.385Z,9.83
2023-01-13T07:08:18.983Z,9.88
2023-01-13T07:10:45.596Z,9.65
2023-01-13T07:13:12.235Z,9.65
2023-01-13T07:15:38.852Z,9.47
2023-01-13T07:18:05.496Z,9.63
2023-01-13T07:20:32.172Z,9.76
2023-01-13T07:22:58.859Z,9.78
2023-01-13T07:25:27.595Z,9.72
2023-01-13T07:27:56.075Z,9.69
2023-01-13T07:30:22.732Z,9.77
2023-01-13T07:32:49.372Z,9.75
2023-01-13T07:35:16.005Z,9.92
2023-01-13T07:37:42.679Z,9.98
2023-01-13T07:40:09.752Z,10.00
2023-01-13T07:42:38.333Z,10.04
2023-01-13T07:45:05.421Z,9.99
2023-01-13T07:47:32.092Z,10.12
2023-01-13T07:49:58.708Z,10.00
2023-01-13T07:52:25.350Z,9.99
2023-01-13T07:54:52.031Z,10.22
2023-01-13T07:57:18.864Z,10.06
2023-01-13T07:59:45.544Z,10.04
2023-01-13T08:02:13.139Z,10.03
2023-01-13T08:04:40.072Z,10.08
2023-01-13T08:07:06.732Z,9.98
2023-01-13T08:09:33.483Z,9.94
2023-01-13T08:12:00.076Z,10.02
2023-01-13T08:14:26.713Z,10.20
2023-01-13T08:16:53.352Z,9.96
2023-01-13T08:19:19.940Z,10.01
2023-01-13T08:21:46.606Z,10.20
2023-01-13T08:24:13.312Z,10.28
2023-01-13T08:26:39.928Z,10.47
2023-01-13T08:29:06.525Z,10.54
2023-01-13T08:31:33.397Z,10.66
2023-01-13T08:34:00.105Z,10.28
2023-01-13T08:36:26.778Z,10.53
2023-01-13T08:38:53.395Z,10.51
2023-01-13T08:41:20.033Z,10.41
2023-01-13T08:43:46.645Z,10.19
2023-01-13T08:46:13.343Z,10.31
2023-01-13T08:48:40.095Z,10.44
2023-01-13T08:51:07.713Z,10.26
2023-01-13T08:53:34.399Z,10.36
2023-01-13T08:56:01.112Z,10.39
2023-01-13T08:58:27.819Z,9.96
2023-01-13T09:00:54.613Z,10.11
2023-01-13T09:03:21.360Z,10.13
2023-01-13T09:05:48.041Z,10.32
2023-01-13T09:08:14.694Z,10.24
2023-01-13T09:10:41.349Z,10.51
2023-01-13T09:13:11.670Z,10.70
2023-01-13T09:15:39.704Z,10.56
2023-01-13T09:18:06.371Z,10.77
2023-01-13T09:20:33.052Z,11.04
2023-01-13T09:22:59.751Z,11.18
2023-01-13T09:25:26.452Z,11.02
2023-01-13T09:27:53.084Z,11.11
2023-01-13T09:30:19.830Z,10.91
2023-01-13T09:32:46.489Z,11.10
2023-01-13T09:35:13.339Z,10.84
2023-01-13T09:37:40.481Z,11.07
2023-01-13T09:40:17.658Z,11.11
2023-01-13T09:42:49.349Z,11.39
2023-01-13T09:45:39.568Z,11.25
2023-01-13T09:48:32.346Z,11.19
2023-01-13T09:51:14.957Z,11.20
2023-01-13T09:53:45.817Z,10.93
2023-01-13T09:56:12.506Z,10.78
2023-01-13T09:58:39.185Z,11.10
2023-01-13T10:01:16.292Z,10.89
2023-01-13T10:03:42.992Z,11.06
2023-01-13T10:06:17.486Z,11.36
2023-01-13T10:08:45.282Z,11.28
2023-01-13T10:11:19.507Z,11.46
2023-01-13T10:13:46.151Z,11.42
2023-01-13T10:16:31.376Z,11.16
2023-01-13T10:19:16.607Z,11.24
2023-01-13T10:21:49.279Z,11.44
2023-01-13T10:24:27.968Z,11.48
2023-01-13T10:26:54.442Z,11.75
2023-01-13T10:29:26.182Z,11.56
2023-01-13T10:31:53.785Z,11.62
2023-01-13T10:34:20.579Z,11.66
2023-01-13T10:37:03.894Z,11.58
2023-01-13T10:39:39.494Z,11.58
2023-01-13T10:42:06.970Z,11.33
2023-01-13T10:44:46.223Z,11.32
2023-01-13T10:47:19.943Z,11.08
2023-01-13T10:49:46.606Z,11.07
2023-01-13T10:52:30.186Z,11.02
2023-01-13T10:54:57.892Z,11.33
2023-01-13T10:57:25.826Z,11.60
2023-01-13T10:59:52.563Z,11.80
2023-01-13T11:02:25.805Z,11.80
2023-01-13T11:04:52.908Z,11.93
2023-01-13T11:07:28.208Z,11.58
2023-01-13T11:10:21.378Z,11.91
2023-01-13T11:13:03.068Z,12.22
2023-01-13T11:15:38.494Z,12.06
2023-01-13T11:18:09.700Z,11.98
2023-01-13T11:20:37.187Z,12.13
2023-01-13T11:23:15.686Z,12.08
2023-01-13T11:25:44.617Z,11.99
2023-01-13T11:28:19.282Z,11.89
2023-01-13T11:31:04.444Z,12.07
2023-01-13T11:33:35.240Z,12.15
2023-01-13T11:36:30.549Z,12.27
2023-01-13T11:39:11.563Z,12.47
2023-01-13T11:41:47.423Z,12.52
2023-01-13T11:44:27.563Z,12.53
2023-01-13T11:46:54.259Z,12.28
2023-01-13T11:49:27.018Z,12.18
2023-01-13T11:52:21.389Z,12.34
2023-01-13T11:55:02.019Z,12.54
2023-01-13T11:58:00.741Z,12.74
2023-01-13T12:00:32.400Z,12.73
2023-01-13T12:03:25.209Z,12.57
2023-01-13T12:06:17.664Z,12.66
2023-01-13T12:09:12.004Z,12.23
2023-01-13T12:11:59.894Z,12.27
2023-01-13T12:14:39.637Z,12.16
2023-01-13T12:17:08.484Z,12.31
2023-01-13T12:19:35.700Z,12.46
2023-01-13T12:22:24.258Z,12.64
2023-01-13T12:24:54.398Z,12.64
2023-01-13T12:27:35.558Z,12.51
2023-01-13T12:30:02.476Z,12.54
2023-01-13T12:32:35.153Z,12.35
2023-01-13T12:35:16.983Z,12.42
2023-01-13T12:38:04.035Z,12.27
2023-01-13T12:40:41.465Z,11.96
2023-01-13T12:43:16.847Z,12.47
2023-01-13T12:45:43.510Z,12.65
2023-01-13T12:48:44.845Z,13.03
2023-01-13T12:51:24.656Z,13.05
2023-01-13T12:53:51.432Z,13.28
2023-01-13T12:56:21.029Z,13.77
2023-01-13T12:58:47.698Z,13.84
2023-01-13T13:01:14.603Z,13.93
2023-01-13T13:03:41.300Z,13.99
2023-01-13T13:06:12.241Z,13.91
2023-01-13T13:09:15.410Z,14.15
2023-01-13T13:11:48.414Z,14.19
2023-01-13T13:14:15.134Z,14.14
2023-01-13T13:16:49.050Z,14.02
2023-01-13T13:19:18.740Z,13.97
2023-01-13T13:22:13.101Z,13.87
2023-01-13T13:24:43.887Z,13.90
2023-01-13T13:27:46.960Z,13.95
2023-01-13T13:30:36.169Z,14.07
2023-01-13T13:33:11.951Z,14.07
2023-01-13T13:35:43.275Z,14.01
2023-01-13T13:38:25.003Z,13.96
2023-01-13T13:40:51.612Z,13.94
2023-01-13T13:43:18.261Z,13.97
2023-01-13T13:45:51.400Z,14.04
2023-01-13T13:48:24.616Z,13.99
2023-01-13T13:50:56.647Z,14.04
2023-01-13T13:53:28.269Z,13.97
2023-01-13T13:55:56.318Z,13.92
2023-01-13T13:58:23.095Z,13.70
2023-01-13T14:00:49.791Z,13.41
2023-01-13T14:03:27.312Z,13.58
2023-01-13T14:05:58.931Z,13.54
2023-01-13T14:08:25.973Z,13.59
2023-01-13T14:10:52.810Z,13.59
2023-01-13T14:13:25.348Z,13.66
2023-01-13T14:16:02.810Z,13.72
2023-01-13T14:18:31.172Z,13.60
2023-01-13T14:21:03.024Z,13.62
2023-01-13T14:23:31.281Z,13.63
2023-01-13T14:26:08.529Z,13.66
2023-01-13T14:28:38.569Z,13.63
2023-01-13T14:31:08.489Z,13.54
2023-01-13T14:33:42.032Z,13.40
2023-01-13T14:36:22.605Z,13.22
2023-01-13T14:39:05.191Z,13.16
2023-01-13T14:41:38.729Z,13.15
2023-01-13T14:44:33.594Z,13.06
2023-01-13T14:47:04.755Z,13.02
2023-01-13T14:49:51.854Z,13.19
2023-01-13T14:52:23.060Z,13.28
2023-01-13T14:55:08.309Z,13.23
2023-01-13T14:57:38.748Z,13.35
2023-01-13T15:00:14.461Z,13.33
2023-01-13T15:02:49.967Z,13.21
2023-01-13T15:05:19.358Z,12.91
2023-01-13T15:08:10.316Z,12.95
2023-01-13T15:10:54.844Z,12.86
2023-01-13T15:13:26.315Z,12.88
2023-01-13T15:15:56.954Z,12.98
2023-01-13T15:18:23.655Z,13.00
2023-01-13T15:20:50.264Z,12.95
2023-01-13T15:23:17.829Z,12.96
2023-01-13T15:25:46.232Z,12.93
2023-01-13T15:28:23.724Z,12.88
2023-01-13T15:30:51.093Z,12.84
2023-01-13T15:33:17.877Z,12.72
2023-01-13T15:35:46.089Z,12.59
2023-01-13T15:38:13.990Z,12.55
2023-01-13T15:40:41.220Z,12.71
2023-01-13T15:43:12.423Z,12.67
2023-01-13T15:45:39.140Z,12.81
2023-01-13T15:48:07.925Z,12.61
2023-01-13T15:50:34.533Z,12.44
2023-01-13T15:53:03.012Z,12.53
2023-01-13T15:55:30.270Z,12.54
2023-01-13T15:57:56.971Z,12.56
2023-01-13T16:00:23.662Z,12.50
2023-01-13T16:02:50.351Z,12.55
2023-01-13T16:05:17.106Z,12.51
2023-01-13T16:07:43.745Z,12.47
2023-01-13T16:10:20.460Z,12.55
2023-01-13T16:12:47.181Z,12.59
2023-01-13T16:15:14.624Z,12.66
2023-01-13T16:17:41.239Z,12.51
2023-01-13T16:20:13.846Z,12.71
2023-01-13T16:22:40.521Z,12.75
2023-01-13T16:25:10.095Z,12.76
2023-01-13T16:27:36.695Z,12.72
2023-01-13T16:30:03.404Z,12.78
2023-01-13T16:32:30.012Z,12.62
2023-01-13T16:34:56.979Z,12.63
2023-01-13T16:37:25.644Z,12.72
2023-01-13T16:39:53.229Z,12.77
2023-01-13T16:42:21.024Z,12.81
2023-01-13T16:44:47.664Z,12.76
2023-01-13T16:47:15.017Z,12.77
2023-01-13T16:49:41.680Z,12.69
2023-01-13T16:52:08.294Z,12.68
2023-01-13T16:54:34.961Z,12.70
2023-01-13T16:57:01.698Z,12.63
2023-01-13T16:59:28.314Z,12.54
2023-01-13T17:01:55.118Z,12.42
2023-01-13T17:04:22.520Z,12.39
2023-01-13T17:07:02.968Z,12.38
2023-01-13T17:09:29.752Z,12.42
2023-01-13T17:11:56.524Z,12.32
2023-01-13T17:14:23.261Z,12.12
2023-01-13T17:16:51.143Z,12.16
2023-01-13T17:19:18.455Z,12.22
2023-01-13T17:21:45.048Z,12.33
2023-01-13T17:24:11.936Z,12.37
2023-01-13T17:26:43.218Z,12.38
2023-01-13T17:29:17.644Z,12.50
2023-01-13T17:31:44.328Z,12.42
2023-01-13T17:34:11.662Z,12.26
2023-01-13T17:36:38.532Z,12.42
2023-01-13T17:39:05.487Z,12.34
2023-01-13T17:41:32.148Z,12.30
2023-01-13T17:43:58.837Z,12.40
2023-01-13T17:46:25.468Z,12.47
2023-01-13T17:48:52.347Z,12.46
2023-01-13T17:51:19.384Z,12.43
2023-01-13T17:53:46.240Z,12.45
2023-01-13T17:56:13.810Z,12.52
2023-01-13T17:58:40.563Z,12.55
2023-01-13T18:01:09.205Z,12.44
2023-01-13T18:03:36.135Z,12.41
2023-01-13T18:06:04.260Z,12.28
2023-01-13T18:08:31.009Z,12.30
2023-01-13T18:10:57.765Z,12.31
2023-01-13T18:13:24.376Z,12.30
2023-01-13T18:16:02.294Z,12.16
2023-01-13T18:18:29.207Z,12.19
2023-01-13T18:20:56.016Z,12.09
2023-01-13T18:23:22.774Z,12.03
2023-01-13T18:25:49.377Z,12.07
2023-01-13T18:28:16.192Z,12.10
2023-01-13T18:30:42.841Z,11.96
2023-01-13T18:33:09.538Z,11.72
2023-01-13T18:35:38.530Z,11.83
2023-01-13T18:38:05.301Z,11.86
2023-01-13T18:40:32.052Z,11.89
2023-01-13T18:42:58.678Z,11.77
2023-01-13T18:45:30.153Z,11.90
2023-01-13T18:47:58.274Z,12.03
2023-01-13T18:50:24.899Z,12.10
2023-01-13T18:52:52.164Z,12.23
2023-01-13T18:55:18.848Z,12.32
2023-01-13T18:57:45.803Z,12.38
2023-01-13T19:00:14.434Z,12.46
2023-01-13T19:02:41.183Z,12.47
2023-01-13T19:05:08.249Z,12.51
2023-01-13T19:07:35.015Z,12.41
2023-01-13T19:10:02.214Z,12.43
2023-01-13T19:12:29.010Z,12.43
2023-01-13T19:14:56.037Z,12.53
2023-01-13T19:17:23.440Z,12.55
2023-01-13T19:19:51.676Z,12.63
2023-01-13T19:22:20.188Z,12.70
2023-01-13T19:24:46.916Z,12.70
2023-01-13T19:27:14.086Z,12.60
2023-01-13T19:29:50.937Z,12.45
2023-01-13T19:32:20.245Z,12.34
2023-01-13T19:34:47.016Z,12.37
2023-01-13T19:37:13.648Z,12.46
2023-01-13T19:39:40.430Z,12.39
2023-01-13T19:42:07.160Z,12.44
2023-01-13T19:44:33.776Z,12.48
2023-01-13T19:47:00.423Z,12.20
2023-01-13T19:49:27.155Z,12.12
2023-01-13T19:51:53.899Z,11.99
2023-01-13T19:54:20.707Z,11.81
2023-01-13T19:56:47.510Z,11.71
2023-01-13T19:59:14.178Z,11.66
2023-01-13T20:01:40.939Z,11.67
2023-01-13T20:04:07.616Z,11.57
2023-01-13T20:06:34.489Z,11.56
2023-01-13T20:09:01.280Z,11.61
2023-01-13T20:11:27.982Z,11.69
2023-01-13T20:13:54.610Z,11.67
2023-01-13T20:16:21.295Z,11.73
2023-01-13T20:18:51.124Z,11.74
2023-01-13T20:21:17.862Z,11.77
2023-01-13T20:23:44.493Z,11.53
2023-01-13T20:26:11.185Z,11.62
2023-01-13T20:28:37.924Z,11.48
2023-01-13T20:31:08.357Z,11.53
2023-01-13T20:33:35.436Z,11.67
2023-01-13T20:36:02.161Z,11.67
2023-01-13T20:38:28.753Z,11.70
2023-01-13T20:41:01.497Z,11.64
2023-01-13T20:43:28.200Z,11.63
2023-01-13T20:45:54.864Z,11.58
2023-01-13T20:48:21.516Z,11.64
2023-01-13T20:50:52.851Z,11.69
2023-01-13T20:53:19.507Z,11.80
2023-01-13T20:55:49.050Z,11.84
2023-01-13T20:58:15.701Z,11.78
2023-01-13T21:00:42.392Z,11.80
2023-01-13T21:03:08.983Z,11.76
2023-01-13T21:05:36.188Z,11.66
2023-01-13T21:08:02.865Z,11.83
2023-01-13T21:10:29.513Z,11.86
2023-01-13T21:12:56.174Z,11.99
2023-01-13T21:15:22.841Z,11.93
2023-01-13T21:17:50.781Z,11.90
2023-01-13T21:20:17.488Z,11.78
2023-01-13T21:22:47.940Z,11.61
2023-01-13T21:25:15.273Z,11.42
2023-01-13T21:27:41.880Z,11.22
2023-01-13T21:30:08.956Z,11.13
2023-01-13T21:32:35.567Z,11.31
2023-01-13T21:35:02.176Z,11.26
2023-01-13T21:37:28.797Z,11.28
2023-01-13T21:39:55.408Z,11.18
2023-01-13T21:42:22.083Z,11.19
2023-01-13T21:44:48.780Z,11.25
2023-01-13T21:47:16.143Z,11.32
2023-01-13T21:49:42.870Z,11.33
2023-01-13T21:52:10.204Z,11.51
2023-01-13T21:54:36.834Z,11.56
2023-01-13T21:57:03.505Z,11.73
2023-01-13T21:59:30.141Z,11.86
2023-01-13T22:02:13.225Z,11.79
2023-01-13T22:04:43.428Z,11.79
2023-01-13T22:07:10.339Z,11.79
2023-01-13T22:09:36.977Z,11.76
2023-01-13T22:12:03.876Z,11.70
2023-01-13T22:14:30.711Z,11.55
2023-01-13T22:16:57.382Z,11.80
2023-01-13T22:19:24.067Z,11.70
2023-01-13T22:21:50.902Z,11.69
2023-01-13T22:24:17.566Z,11.83
2023-01-13T22:26:44.217Z,11.87
2023-01-13T22:29:11.000Z,11.96
2023-01-13T22:31:38.017Z,12.07
2023-01-13T22:34:04.719Z,11.96
2023-01-13T22:36:31.397Z,11.73
2023-01-13T22:38:58.053Z,11.82
2023-01-13T22:41:24.652Z,11.70
2023-01-13T22:43:51.441Z,11.56
2023-01-13T22:46:18.245Z,11.67
2023-01-13T22:48:45.095Z,11.47
2023-01-13T22:51:13.215Z,11.44
2023-01-13T22:53:39.996Z,11.25
2023-01-13T22:56:06.954Z,11.26
2023-01-13T22:58:33.594Z,11.33
2023-01-13T23:01:11.199Z,11.26
2023-01-13T23:03:37.887Z,11.20
2023-01-13T23:06:04.770Z,11.16
2023-01-13T23:08:32.487Z,11.24
2023-01-13T23:11:07.155Z,11.27
2023-01-13T23:13:34.221Z,11.43
2023-01-13T23:16:04.429Z,11.31
2023-01-13T23:18:31.589Z,11.39
2023-01-13T23:21:10.627Z,11.48
2023-01-13T23:23:37.358Z,11.46
2023-01-13T23:26:04.313Z,11.54
2023-01-13T23:28:30.951Z,11.55
2023-01-13T23:30:57.692Z,11.45
2023-01-13T23:33:24.356Z,11.42
2023-01-13T23:36:01.876Z,11.18
2023-01-13T23:38:29.043Z,11.26
2023-01-13T23:40:55.895Z,11.18
2023-01-13T23:43:22.736Z,11.00
2023-01-13T23:45:49.604Z,11.01
2023-01-13T23:48:16.269Z,11.06
2023-01-13T23:50:42.951Z,10.98
2023-01-13T23:53:09.625Z,10.94
2023-01-13T23:55:36.358Z,11.01
2023-01-13T23:58:03.027Z,10.90
